Maximiano — PWPM — position and weather

sailwx.info

Track history (hours):
 
Tides and Currents Weather Stations Pressure Air Temp Water Temp Dewpoint Dewpoint Depression Visibility Wind Speed Wind Dir Waves Ship Positions

Oceanographic research ship Maximiano (Brazil)

Last reported at 2018-Oct-08 21:36 UTC. Time now 2018-Dec-10 20:45 UTC.
Position S 23°20' W 043°24'.
Warning: this ship's position is months out of date.

Type: Military. MMSI: 710481000.

Date/timePositionNaut miles runAvg speedWind from/ knotsBaromVisibWave heightAir tempDewpointWater temp
2018-Oct-08 21:36S 23°20' W 043°24'110.1
2018-Oct-08 21:30S 23°19' W 043°23'410.1
2018-Oct-08 21:04S 23°16' W 043°20'110.0
2018-Oct-08 21:00S 23°16' W 043°19'5 9.8
2018-Oct-08 20:30S 23°12' W 043°16'4 9.7
2018-Oct-08 20:03S 23°09' W 043°12'0 9.6
2018-Oct-08 20:00S 23°08' W 043°12'11 1.9
2018-Oct-08 14:00S 22°58' W 043°08'4 7.8
2018-Oct-08 13:30S 22°54' W 043°09'1 3.1
2018-Oct-08 13:04S 22°54' W 043°10'0 0.6
2018-Oct-08 13:00S 22°54' W 043°10'  
Track history (hours):
 
Tides and Currents Weather Stations Pressure Air Temp Water Temp Dewpoint Dewpoint Depression Visibility Wind Speed Wind Dir Waves Ship Positions

Oceanographic research ship Maximiano (Brazil)

Last reported at 2018-Oct-08 21:36 UTC. Time now 2018-Dec-10 20:45 UTC.
Position S 23°20' W 043°24'.
Warning: this ship's position is months out of date.

Type: Military. MMSI: 710481000.

Date/timePositionNaut miles runAvg speedWind from/ knotsBaromVisibWave heightAir tempDewpointWater temp
2018-Oct-08 21:36S 23°20' W 043°24'110.1
2018-Oct-08 21:30S 23°19' W 043°23'410.1
2018-Oct-08 21:04S 23°16' W 043°20'110.0
2018-Oct-08 21:00S 23°16' W 043°19'5 9.8
2018-Oct-08 20:30S 23°12' W 043°16'4 9.7
2018-Oct-08 20:03S 23°09' W 043°12'0 9.6
2018-Oct-08 20:00S 23°08' W 043°12'11 1.9
2018-Oct-08 14:00S 22°58' W 043°08'4 7.8
2018-Oct-08 13:30S 22°54' W 043°09'1 3.1
2018-Oct-08 13:04S 22°54' W 043°10'0 0.6
2018-Oct-08 13:00S 22°54' W 043°10'  

Dump ship's entire track history